Time;durP1;ratioP1;P1;durP2;ratioP2;P2;SDS_P1;SDS_P2;PMS_P1;PMS_P2;Temp;Humidity;BMP_temperature;BMP_pressure;BME280_temperature;BME280_humidity;BME280_pressure;Samples;Min_cycle;Max_cycle;Signal;HPM_P1;HPM_P2
2023/03/24 00:02:23;;;;;;;15.05;5.45;;;11.70;99.90;;;;;;5033012;28;20041;-70
2023/03/24 00:04:51;;;;;;;12.82;4.57;;;11.60;99.90;;;;;;5015584;28;20115;-70
2023/03/24 00:07:18;;;;;;;12.77;6.10;;;11.60;99.90;;;;;;5033957;28;20042;-70
2023/03/24 00:09:44;;;;;;;9.30;4.55;;;11.60;99.90;;;;;;5033514;28;20045;-70
2023/03/24 00:12:12;;;;;;;12.40;5.22;;;11.70;99.90;;;;;;4999607;28;20042;-70
2023/03/24 00:14:39;;;;;;;11.10;5.70;;;11.60;99.90;;;;;;5033405;28;20060;-70
2023/03/24 00:17:08;;;;;;;16.67;5.28;;;11.60;99.90;;;;;;5015806;28;20457;-70
2023/03/24 00:19:38;;;;;;;13.80;5.43;;;11.60;99.90;;;;;;5033271;28;20037;-73
2023/03/24 00:22:04;;;;;;;12.85;5.13;;;11.70;99.90;;;;;;5033649;28;20037;-73
2023/03/24 00:24:31;;;;;;;9.30;4.80;;;11.60;99.90;;;;;;5033268;28;20104;-73
2023/03/24 00:26:56;;;;;;;10.25;4.82;;;11.60;99.90;;;;;;5033430;28;20049;-70
2023/03/24 00:29:23;;;;;;;9.57;5.15;;;11.60;99.90;;;;;;5032572;28;20119;-70
2023/03/24 00:31:51;;;;;;;13.65;5.43;;;11.60;99.90;;;;;;5014639;28;20497;-70
2023/03/24 00:34:20;;;;;;;10.00;5.57;;;11.60;99.90;;;;;;5032999;28;20437;-70
2023/03/24 00:36:47;;;;;;;13.52;5.30;;;11.70;99.90;;;;;;4999340;28;20052;-70
2023/03/24 00:39:16;;;;;;;10.23;5.95;;;11.60;99.90;;;;;;5033161;28;20076;-70
2023/03/24 00:41:43;;;;;;;11.77;6.30;;;11.60;99.90;;;;;;5015422;28;20037;-70
2023/03/24 00:44:20;;;;;;;7.93;4.97;;;11.60;99.90;;;;;;5032810;28;20042;-70
2023/03/24 00:46:56;;;;;;;10.93;5.63;;;11.60;99.90;;;;;;5033278;28;20037;-70
2023/03/24 00:49:41;;;;;;;10.13;5.22;;;11.60;99.90;;;;;;5015091;28;20524;-70
2023/03/24 00:52:09;;;;;;;11.10;5.38;;;11.60;99.90;;;;;;5015495;28;20041;-70
2023/03/24 00:54:36;;;;;;;11.45;5.22;;;11.60;99.90;;;;;;5014828;28;20095;-70
2023/03/24 00:57:02;;;;;;;11.57;6.03;;;11.60;99.90;;;;;;5032707;28;20513;-70
2023/03/24 00:59:28;;;;;;;9.00;4.75;;;11.60;99.90;;;;;;5032706;28;20053;-70
2023/03/24 01:01:55;;;;;;;8.48;5.10;;;11.60;99.90;;;;;;5014602;28;20052;-73
2023/03/24 01:04:23;;;;;;;10.63;5.03;;;11.60;99.90;;;;;;5032152;28;20046;-73
2023/03/24 01:06:51;;;;;;;12.15;4.35;;;11.60;99.90;;;;;;5032685;28;20042;-70
2023/03/24 01:09:16;;;;;;;11.02;4.78;;;11.60;99.90;;;;;;5014704;28;20053;-70
2023/03/24 01:11:42;;;;;;;9.00;4.50;;;11.60;99.90;;;;;;5032313;28;20044;-70
2023/03/24 01:14:09;;;;;;;8.27;4.45;;;11.60;99.90;;;;;;5032223;28;20558;-70
2023/03/24 01:16:35;;;;;;;9.27;5.28;;;11.60;99.90;;;;;;5031885;28;20041;-70
2023/03/24 01:19:01;;;;;;;11.70;4.88;;;11.60;99.90;;;;;;5032203;28;20049;-70
2023/03/24 01:21:27;;;;;;;10.77;4.60;;;11.60;99.90;;;;;;5032161;28;20041;-70
2023/03/24 01:23:53;;;;;;;9.15;4.78;;;11.60;99.90;;;;;;5031952;28;20565;-71
2023/03/24 01:26:18;;;;;;;8.70;4.45;;;11.60;99.90;;;;;;5031957;28;20053;-70
2023/03/24 01:28:44;;;;;;;7.93;4.75;;;11.60;99.90;;;;;;5032135;28;20041;-70
2023/03/24 01:31:10;;;;;;;9.85;4.82;;;11.60;99.90;;;;;;5014715;28;20041;-70
2023/03/24 01:33:37;;;;;;;11.75;4.88;;;11.60;99.90;;;;;;5032149;28;20501;-70
2023/03/24 01:36:03;;;;;;;7.72;4.90;;;11.60;99.90;;;;;;5031866;28;20456;-70
2023/03/24 01:38:29;;;;;;;6.70;4.40;;;11.60;99.90;;;;;;5031734;28;20077;-70
2023/03/24 01:40:55;;;;;;;10.27;4.93;;;11.60;99.90;;;;;;5032181;28;20070;-70
2023/03/24 01:43:25;;;;;;;12.52;4.90;;;11.60;99.90;;;;;;5032134;28;20037;-70
2023/03/24 01:46:04;;;;;;;6.53;3.80;;;11.60;99.90;;;;;;5032022;28;20029;-70
2023/03/24 01:48:50;;;;;;;12.23;4.75;;;11.60;99.90;;;;;;5031970;28;20045;-70
2023/03/24 01:51:30;;;;;;;8.43;4.30;;;11.60;99.90;;;;;;5031920;28;20041;-70
2023/03/24 01:54:00;;;;;;;9.13;5.10;;;11.60;99.90;;;;;;5031721;28;20123;-70
2023/03/24 01:56:28;;;;;;;7.25;4.40;;;11.60;99.90;;;;;;5031895;28;20037;-70
2023/03/24 01:58:59;;;;;;;8.43;4.95;;;11.60;99.90;;;;;;5031711;28;20068;-70
2023/03/24 02:01:28;;;;;;;7.25;3.85;;;11.60;99.90;;;;;;5031722;28;20049;-70
2023/03/24 02:03:55;;;;;;;7.68;4.22;;;11.50;99.90;;;;;;5031820;28;20041;-70
2023/03/24 02:06:22;;;;;;;11.75;4.97;;;11.50;99.90;;;;;;5031785;28;20109;-70
2023/03/24 02:08:55;;;;;;;6.65;4.45;;;11.60;99.90;;;;;;5031613;28;20382;-70
2023/03/24 02:11:22;;;;;;;7.45;4.20;;;11.60;99.90;;;;;;5031684;28;20469;-71
2023/03/24 02:13:48;;;;;;;6.75;3.72;;;11.60;99.90;;;;;;5031489;28;20043;-70
2023/03/24 02:16:40;;;;;;;7.03;4.20;;;11.60;99.90;;;;;;5031438;28;20112;-70
2023/03/24 02:19:51;;;;;;;8.15;4.20;;;11.60;99.90;;;;;;5031024;28;20049;-70
2023/03/24 02:22:43;;;;;;;5.85;4.10;;;11.60;99.90;;;;;;5031514;28;20071;-70
2023/03/24 02:25:14;;;;;;;8.80;5.03;;;11.60;99.90;;;;;;5031405;28;20076;-70
2023/03/24 02:28:09;;;;;;;5.65;4.55;;;11.60;99.90;;;;;;5031536;28;20045;-70
2023/03/24 02:30:53;;;;;;;6.32;4.38;;;11.60;99.90;;;;;;5035474;28;20420;-70
2023/03/24 02:33:18;;;;;;;;;;;11.60;99.90;;;;;;5036090;28;20041;-70
2023/03/24 02:36:20;;;;;;;7.80;4.78;;;11.50;99.90;;;;;;5035331;28;19916;-70
2023/03/24 02:39:13;;;;;;;9.00;4.43;;;11.60;99.90;;;;;;5017449;28;20441;-70
2023/03/24 02:42:04;;;;;;;6.95;5.03;;;11.50;99.90;;;;;;5017748;28;20120;-70
2023/03/24 02:44:44;;;;;;;7.28;4.82;;;11.50;99.90;;;;;;5035096;28;20048;-70
2023/03/24 02:47:29;;;;;;;6.85;4.60;;;11.60;99.90;;;;;;5017590;28;20048;-70
2023/03/24 02:50:21;;;;;;;8.13;5.18;;;11.60;99.90;;;;;;5035419;28;20565;-70
2023/03/24 02:52:49;;;;;;;9.93;4.72;;;11.60;99.90;;;;;;5035290;28;20049;-70
2023/03/24 02:55:33;;;;;;;7.72;4.82;;;11.60;99.90;;;;;;5034955;28;20137;-70
2023/03/24 02:58:28;;;;;;;;;;;11.60;99.90;;;;;;5035459;28;20469;-70
2023/03/24 03:01:09;;;;;;;6.88;4.40;;;11.60;99.90;;;;;;4996570;28;19936;-70
2023/03/24 03:03:42;;;;;;;7.97;4.65;;;11.60;99.90;;;;;;4997393;28;20544;-70
2023/03/24 03:06:28;;;;;;;6.32;5.15;;;11.70;99.90;;;;;;4997147;28;20409;-70
2023/03/24 03:08:55;;;;;;;8.02;4.93;;;11.70;99.90;;;;;;4980923;28;20049;-70
2023/03/24 03:11:21;;;;;;;8.02;5.00;;;11.70;99.90;;;;;;5015158;28;20033;-70
2023/03/24 03:13:54;;;;;;;6.80;4.85;;;11.70;99.90;;;;;;5014800;28;20125;-70
2023/03/24 03:16:37;;;;;;;7.82;5.22;;;11.70;99.90;;;;;;5014764;28;20463;-70
2023/03/24 03:19:09;;;;;;;8.37;5.30;;;11.70;99.90;;;;;;4997043;28;20045;-70
2023/03/24 03:21:40;;;;;;;9.45;4.97;;;11.60;99.90;;;;;;5014897;28;20277;-70
2023/03/24 03:24:10;;;;;;;7.78;4.65;;;11.70;99.90;;;;;;4997060;28;20042;-71
2023/03/24 03:26:36;;;;;;;8.98;5.20;;;11.70;99.90;;;;;;4997397;28;20042;-70
2023/03/24 03:29:10;;;;;;;10.43;5.13;;;11.70;99.90;;;;;;5014509;28;20080;-70
2023/03/24 03:31:51;;;;;;;11.32;5.35;;;11.70;99.90;;;;;;5014901;28;20111;-70
2023/03/24 03:34:28;;;;;;;10.70;5.32;;;11.70;99.90;;;;;;5024346;28;20046;-70
2023/03/24 03:37:02;;;;;;;8.27;5.22;;;11.70;99.90;;;;;;5016550;28;20049;-70
2023/03/24 03:39:33;;;;;;;7.70;4.40;;;11.70;99.90;;;;;;5017872;28;20038;-70
2023/03/24 03:41:58;;;;;;;7.32;5.28;;;11.70;99.90;;;;;;5006382;28;20041;-70
2023/03/24 03:44:24;;;;;;;11.57;5.82;;;11.80;99.90;;;;;;4996468;28;20033;-70
2023/03/24 03:46:51;;;;;;;10.68;6.03;;;11.80;99.90;;;;;;5014517;28;20040;-71
2023/03/24 03:49:16;;;;;;;5.72;3.40;;;11.80;99.90;;;;;;4996551;28;20046;-70
2023/03/24 03:51:42;;;;;;;5.20;3.17;;;11.80;99.90;;;;;;5014268;28;20405;-70
2023/03/24 03:54:11;;;;;;;5.05;2.95;;;11.80;99.90;;;;;;5013944;28;20038;-70
2023/03/24 03:56:37;;;;;;;5.07;3.05;;;11.70;99.90;;;;;;4996662;28;20050;-70
2023/03/24 03:59:05;;;;;;;5.15;3.30;;;11.70;99.90;;;;;;4996122;28;20049;-70
2023/03/24 04:01:35;;;;;;;5.55;3.00;;;11.60;99.90;;;;;;4996723;28;20401;-70
2023/03/24 04:04:25;;;;;;;4.65;3.65;;;11.60;99.90;;;;;;5013868;28;20048;-70
2023/03/24 04:07:06;;;;;;;6.25;3.03;;;11.50;99.90;;;;;;5014011;28;20038;-70
2023/03/24 04:10:16;;;;;;;5.70;2.95;;;11.40;99.90;;;;;;5050317;22;20103;-68
2023/03/24 04:13:02;;;;;;;7.68;3.22;;;11.30;99.90;;;;;;5033817;28;20045;-68
2023/03/24 04:15:42;;;;;;;6.47;3.15;;;11.30;99.90;;;;;;5033575;28;20040;-68
2023/03/24 04:18:41;;;;;;;6.05;2.95;;;11.20;99.90;;;;;;5015117;28;20041;-68
2023/03/24 04:21:47;;;;;;;10.10;3.60;;;11.10;99.90;;;;;;5033700;28;20053;-68
2023/03/24 04:24:26;;;;;;;8.05;2.30;;;11.00;99.90;;;;;;5033184;28;20489;-67
2023/03/24 04:27:15;;;;;;;11.00;2.55;;;11.00;99.90;;;;;;5033308;28;20029;-68
2023/03/24 04:30:06;;;;;;;5.75;2.00;;;11.00;99.90;;;;;;5033402;28;20041;-68
2023/03/24 04:32:45;;;;;;;6.97;2.03;;;10.80;99.90;;;;;;5015613;28;20045;-68
2023/03/24 04:35:19;;;;;;;11.88;2.70;;;10.90;99.90;;;;;;5032923;28;20436;-68
2023/03/24 04:37:46;;;;;;;5.45;1.88;;;10.80;99.90;;;;;;5033299;28;20045;-68
2023/03/24 04:40:16;;;;;;;7.43;1.88;;;10.70;99.90;;;;;;5033034;28;20049;-68
2023/03/24 04:42:46;;;;;;;10.43;2.78;;;10.60;99.90;;;;;;5033146;28;20095;-68
2023/03/24 04:45:15;;;;;;;11.05;2.20;;;10.60;99.90;;;;;;5015329;28;20041;-67
2023/03/24 04:47:52;;;;;;;8.73;2.08;;;10.60;99.90;;;;;;5032877;28;20052;-68
2023/03/24 04:50:37;;;;;;;7.82;2.00;;;10.50;99.90;;;;;;5032523;28;20053;-68
2023/03/24 04:53:04;;;;;;;9.20;2.30;;;10.40;99.90;;;;;;5032964;28;20148;-68
2023/03/24 04:55:48;;;;;;;8.40;1.85;;;10.40;99.90;;;;;;5032646;28;20065;-68
2023/03/24 04:58:14;;;;;;;7.40;1.80;;;10.40;99.90;;;;;;5032644;28;20045;-68
2023/03/24 05:00:42;;;;;;;7.95;2.63;;;10.30;99.90;;;;;;5032909;28;20124;-68
2023/03/24 05:03:12;;;;;;;9.40;2.20;;;10.30;99.90;;;;;;5015209;28;20401;-68
2023/03/24 05:05:48;;;;;;;6.80;2.78;;;10.30;99.90;;;;;;5014847;28;20127;-68
2023/03/24 05:08:15;;;;;;;10.85;2.45;;;10.30;99.90;;;;;;5032506;28;20045;-68
2023/03/24 05:10:41;;;;;;;10.88;2.40;;;10.30;99.90;;;;;;5032582;28;20094;-68
2023/03/24 05:13:07;;;;;;;5.55;2.08;;;10.20;99.90;;;;;;5032713;28;20049;-68
2023/03/24 05:15:34;;;;;;;6.20;2.25;;;10.20;99.90;;;;;;5014847;28;20146;-68
2023/03/24 05:18:00;;;;;;;9.65;2.25;;;10.20;99.90;;;;;;5032396;28;20059;-68
2023/03/24 05:20:26;;;;;;;7.43;1.83;;;10.20;99.90;;;;;;4998540;28;20041;-68
2023/03/24 05:22:52;;;;;;;8.25;2.38;;;10.20;99.90;;;;;;5032216;28;20564;-68
2023/03/24 05:25:18;;;;;;;8.02;2.22;;;10.20;99.90;;;;;;5032234;28;20104;-68
2023/03/24 05:27:44;;;;;;;15.02;2.75;;;10.20;99.90;;;;;;5032458;28;20424;-68
2023/03/24 05:30:11;;;;;;;11.43;2.55;;;10.20;99.90;;;;;;4998032;28;20073;-68
2023/03/24 05:32:36;;;;;;;13.20;2.40;;;10.10;99.90;;;;;;5032264;28;20125;-68
2023/03/24 05:35:03;;;;;;;15.50;3.35;;;10.10;99.90;;;;;;5031966;28;20512;-68
2023/03/24 05:37:29;;;;;;;12.65;2.50;;;10.10;99.90;;;;;;5032045;28;20041;-68
2023/03/24 05:39:55;;;;;;;16.48;2.83;;;10.10;99.90;;;;;;5032062;28;20050;-68
2023/03/24 05:42:21;;;;;;;13.48;3.42;;;10.10;99.90;;;;;;5032281;28;20033;-68
2023/03/24 05:44:46;;;;;;;14.00;3.10;;;10.10;99.90;;;;;;5031838;28;20108;-68
2023/03/24 05:47:14;;;;;;;11.50;2.92;;;10.00;99.90;;;;;;5032040;28;20079;-68
2023/03/24 05:49:44;;;;;;;13.93;4.10;;;10.10;99.90;;;;;;5031812;28;20116;-68
2023/03/24 05:52:11;;;;;;;12.52;3.58;;;10.10;99.90;;;;;;5014294;28;20087;-68
2023/03/24 05:54:38;;;;;;;12.27;3.90;;;10.00;99.90;;;;;;5031831;28;20045;-68
2023/03/24 05:57:06;;;;;;;11.85;3.38;;;10.00;99.90;;;;;;5032048;28;20042;-68
2023/03/24 05:59:32;;;;;;;17.23;4.20;;;10.10;99.90;;;;;;5013995;28;20056;-68
2023/03/24 06:01:58;;;;;;;18.35;3.85;;;10.10;99.90;;;;;;5031667;28;20037;-68
2023/03/24 06:04:29;;;;;;;11.75;3.50;;;10.00;99.90;;;;;;5031434;28;20034;-68
2023/03/24 06:06:57;;;;;;;14.23;3.85;;;10.00;99.90;;;;;;5031645;28;20116;-68
2023/03/24 06:09:34;;;;;;;16.80;3.55;;;10.10;99.90;;;;;;5031469;28;20060;-67
2023/03/24 06:12:00;;;;;;;21.02;4.05;;;10.10;99.90;;;;;;5031795;28;20045;-67
2023/03/24 06:14:26;;;;;;;18.92;3.85;;;10.10;99.90;;;;;;5031552;28;20038;-67
2023/03/24 06:16:52;;;;;;;18.75;4.32;;;10.10;99.90;;;;;;5031600;28;20040;-67
2023/03/24 06:19:21;;;;;;;15.02;3.28;;;10.10;99.90;;;;;;5031229;28;20037;-67
2023/03/24 06:21:49;;;;;;;17.77;3.22;;;10.10;99.90;;;;;;5031731;28;20065;-67
2023/03/24 06:24:15;;;;;;;12.93;3.53;;;10.10;99.90;;;;;;5031197;28;20136;-67
2023/03/24 06:26:43;;;;;;;16.00;3.67;;;10.00;99.90;;;;;;5031568;28;20115;-67
2023/03/24 06:29:09;;;;;;;13.88;3.30;;;10.00;99.90;;;;;;5031523;28;20405;-67
2023/03/24 06:31:36;;;;;;;12.70;4.03;;;10.00;99.90;;;;;;5031499;28;20056;-67
2023/03/24 06:34:05;;;;;;;13.95;4.43;;;10.00;99.90;;;;;;5031050;28;20050;-67
2023/03/24 06:36:33;;;;;;;18.90;4.80;;;10.00;99.90;;;;;;5031470;28;20049;-67
2023/03/24 06:39:00;;;;;;;11.57;3.38;;;10.00;99.90;;;;;;5031162;28;20548;-67
2023/03/24 06:41:26;;;;;;;13.32;3.55;;;10.10;99.90;;;;;;5013677;28;20117;-68
2023/03/24 06:43:52;;;;;;;14.70;3.92;;;10.00;99.90;;;;;;5031273;28;20475;-68
2023/03/24 06:46:18;;;;;;;14.32;4.15;;;10.10;99.90;;;;;;5031204;28;20041;-67
2023/03/24 06:48:43;;;;;;;14.98;3.65;;;10.10;99.90;;;;;;5031259;28;20120;-67
2023/03/24 06:51:09;;;;;;;16.88;4.55;;;10.10;99.90;;;;;;5013585;28;20150;-67
2023/03/24 06:53:34;;;;;;;15.20;3.15;;;10.10;99.90;;;;;;5031288;28;20046;-68
2023/03/24 06:56:00;;;;;;;10.48;3.45;;;10.10;99.90;;;;;;5031231;28;20041;-67
2023/03/24 06:58:26;;;;;;;16.55;3.13;;;10.10;99.90;;;;;;5013569;28;20049;-67
2023/03/24 07:00:52;;;;;;;13.77;3.47;;;10.10;99.90;;;;;;5013474;28;20520;-67
2023/03/24 07:03:18;;;;;;;20.27;4.07;;;10.20;99.90;;;;;;5013319;28;20045;-67
2023/03/24 07:05:44;;;;;;;12.20;2.88;;;10.20;99.90;;;;;;5031008;28;20037;-67
2023/03/24 07:08:12;;;;;;;17.77;3.58;;;10.20;99.90;;;;;;5031080;28;20049;-67
2023/03/24 07:10:39;;;;;;;12.15;3.55;;;10.20;99.90;;;;;;5031253;28;20049;-67
2023/03/24 07:13:05;;;;;;;14.45;3.40;;;10.20;99.90;;;;;;5031022;28;20056;-67
2023/03/24 07:15:31;;;;;;;13.63;3.60;;;10.30;99.90;;;;;;5033491;28;20045;-67
2023/03/24 07:17:57;;;;;;;11.88;3.22;;;10.30;99.90;;;;;;5016994;28;20049;-67
2023/03/24 07:20:23;;;;;;;16.05;3.95;;;10.30;99.90;;;;;;5034796;28;20037;-67
2023/03/24 07:22:49;;;;;;;19.40;4.55;;;10.30;99.90;;;;;;5034588;28;20072;-67
2023/03/24 07:25:19;;;;;;;18.60;4.10;;;10.30;99.90;;;;;;5016826;28;20404;-67
2023/03/24 07:27:45;;;;;;;11.27;2.67;;;10.30;99.90;;;;;;5034409;28;20041;-67
2023/03/24 07:30:12;;;;;;;20.33;3.55;;;10.30;99.90;;;;;;5034222;28;20084;-67
2023/03/24 07:32:38;;;;;;;12.45;3.88;;;10.30;99.90;;;;;;5034273;28;20045;-66
2023/03/24 07:35:09;;;;;;;23.88;4.22;;;10.30;99.90;;;;;;5034039;28;20444;-67
2023/03/24 07:37:35;;;;;;;15.23;4.28;;;10.30;99.90;;;;;;5034201;28;20038;-67
2023/03/24 07:40:08;;;;;;;15.70;3.55;;;10.40;99.90;;;;;;5016431;28;20457;-67
2023/03/24 07:42:33;;;;;;;15.93;3.93;;;10.30;99.90;;;;;;5034213;28;20037;-67
2023/03/24 07:44:59;;;;;;;17.05;4.95;;;10.30;99.90;;;;;;5033832;28;20048;-67
2023/03/24 07:47:25;;;;;;;23.25;3.92;;;10.40;99.90;;;;;;5033900;28;20048;-67
2023/03/24 07:49:50;;;;;;;18.40;4.28;;;10.50;99.90;;;;;;5034005;28;20038;-67
2023/03/24 07:52:16;;;;;;;16.50;3.55;;;10.50;99.90;;;;;;5034153;28;20086;-67
2023/03/24 07:54:41;;;;;;;16.52;4.32;;;10.50;99.90;;;;;;5033709;28;20045;-67
2023/03/24 07:57:07;;;;;;;19.17;3.60;;;10.40;99.90;;;;;;5033831;28;20091;-67
2023/03/24 07:59:33;;;;;;;15.48;3.65;;;10.40;99.90;;;;;;5033630;28;20045;-67
2023/03/24 08:01:59;;;;;;;18.70;3.80;;;10.40;99.90;;;;;;5033929;28;20066;-67
2023/03/24 08:04:26;;;;;;;17.05;4.00;;;10.50;99.90;;;;;;5033541;28;20045;-67
2023/03/24 08:06:52;;;;;;;20.38;4.00;;;10.40;99.90;;;;;;5033804;28;20688;-67
2023/03/24 08:09:18;;;;;;;23.85;4.65;;;10.40;99.90;;;;;;5033478;28;20076;-67
2023/03/24 08:11:44;;;;;;;12.57;3.33;;;10.50;99.90;;;;;;5033295;28;20418;-67
2023/03/24 08:14:09;;;;;;;19.00;4.55;;;10.50;99.90;;;;;;5033622;28;20034;-67
2023/03/24 08:16:37;;;;;;;21.33;4.15;;;10.60;99.90;;;;;;5033760;28;20041;-67
2023/03/24 08:19:03;;;;;;;18.50;3.95;;;10.60;99.90;;;;;;5033508;28;20049;-67
2023/03/24 08:21:29;;;;;;;15.32;3.78;;;10.70;99.90;;;;;;5033544;28;20034;-67
2023/03/24 08:23:54;;;;;;;20.35;4.05;;;10.70;99.90;;;;;;5033449;28;20029;-67
2023/03/24 08:26:21;;;;;;;21.75;4.32;;;10.80;99.90;;;;;;5032054;28;20033;-67
2023/03/24 08:28:48;;;;;;;23.88;4.10;;;10.90;99.90;;;;;;5015577;28;20053;-67
2023/03/24 08:31:14;;;;;;;20.05;3.85;;;11.20;99.90;;;;;;5033436;28;20041;-66
2023/03/24 08:33:40;;;;;;;24.27;4.00;;;11.60;99.90;;;;;;5033097;28;20120;-67
2023/03/24 08:36:07;;;;;;;17.73;4.80;;;12.00;99.90;;;;;;5033239;28;20045;-67
2023/03/24 08:38:32;;;;;;;21.55;4.20;;;12.40;99.90;;;;;;5015255;28;20417;-67
2023/03/24 08:41:01;;;;;;;19.45;4.03;;;12.40;99.90;;;;;;5033090;28;20034;-67
2023/03/24 08:43:28;;;;;;;17.23;3.97;;;12.60;99.90;;;;;;5033073;28;20525;-68
2023/03/24 08:45:59;;;;;;;14.80;3.30;;;12.90;99.90;;;;;;5032795;28;20056;-71
2023/03/24 08:48:26;;;;;;;22.85;3.67;;;13.00;99.90;;;;;;5014902;28;20084;-70
2023/03/24 08:50:52;;;;;;;16.75;4.70;;;13.00;99.90;;;;;;5032922;28;20041;-71
2023/03/24 08:53:18;;;;;;;24.17;4.55;;;12.90;99.90;;;;;;5032857;28;20413;-71
2023/03/24 08:55:44;;;;;;;19.85;4.32;;;12.90;99.90;;;;;;5032529;28;20037;-71
2023/03/24 08:58:18;;;;;;;15.77;3.30;;;12.80;99.90;;;;;;5014921;28;20042;-71
2023/03/24 09:00:45;;;;;;;14.65;4.32;;;12.90;99.90;;;;;;5015246;28;20511;-71
2023/03/24 09:03:20;;;;;;;19.10;4.32;;;12.90;99.90;;;;;;5015345;28;20447;-71
2023/03/24 09:05:46;;;;;;;18.88;4.35;;;13.00;99.90;;;;;;5032565;28;20038;-71
2023/03/24 09:08:13;;;;;;;15.23;3.42;;;13.10;99.90;;;;;;5032401;28;20064;-72
2023/03/24 09:10:41;;;;;;;14.50;4.05;;;13.10;99.90;;;;;;5032672;28;20120;-71
2023/03/24 09:13:06;;;;;;;18.70;3.50;;;13.10;99.90;;;;;;5015025;28;20051;-71
2023/03/24 09:15:32;;;;;;;15.48;3.97;;;13.20;99.90;;;;;;5014573;28;20034;-71
2023/03/24 09:17:58;;;;;;;21.95;4.28;;;13.30;99.90;;;;;;5014679;28;20048;-71
2023/03/24 09:20:24;;;;;;;13.07;3.65;;;13.30;99.90;;;;;;5014660;28;20083;-71
2023/03/24 09:22:51;;;;;;;13.27;3.10;;;13.40;99.90;;;;;;5032336;28;20044;-71
2023/03/24 09:25:19;;;;;;;15.23;3.25;;;13.10;99.90;;;;;;5014396;28;20037;-71
2023/03/24 09:27:45;;;;;;;15.27;3.55;;;13.00;99.90;;;;;;5014509;28;20041;-71
2023/03/24 09:30:13;;;;;;;16.50;3.65;;;12.70;99.90;;;;;;5032214;28;20042;-71
2023/03/24 09:32:38;;;;;;;14.63;3.42;;;12.50;99.90;;;;;;5032298;28;20079;-71
2023/03/24 09:35:06;;;;;;;16.70;3.53;;;12.60;99.90;;;;;;5014448;28;20057;-71
2023/03/24 09:37:33;;;;;;;12.00;3.25;;;12.80;99.90;;;;;;5031833;28;20060;-71
2023/03/24 09:40:00;;;;;;;18.13;2.97;;;12.70;99.90;;;;;;5014324;28;20041;-71
2023/03/24 09:42:31;;;;;;;15.32;3.72;;;12.40;99.90;;;;;;5014350;28;20121;-71
2023/03/24 09:44:58;;;;;;;17.63;3.13;;;12.20;99.90;;;;;;5013992;28;20167;-71
2023/03/24 09:47:50;;;;;;;15.02;3.38;;;12.00;99.90;;;;;;5032020;28;20278;-71
2023/03/24 09:50:24;;;;;;;13.63;3.15;;;12.10;99.90;;;;;;5031411;28;20125;-71
2023/03/24 09:52:55;;;;;;;17.70;2.90;;;12.10;99.90;;;;;;5014127;28;20041;-71
2023/03/24 09:55:24;;;;;;;12.30;3.20;;;12.20;99.90;;;;;;5013997;28;20045;-71
2023/03/24 09:57:52;;;;;;;13.15;3.08;;;12.30;99.90;;;;;;5031727;28;20124;-71
2023/03/24 10:00:24;;;;;;;10.75;3.15;;;12.40;99.90;;;;;;5031723;28;20042;-71
2023/03/24 10:02:50;;;;;;;12.70;2.97;;;12.50;99.90;;;;;;5014060;28;20038;-71
2023/03/24 10:05:32;;;;;;;12.55;3.50;;;12.60;99.90;;;;;;5031633;28;20085;-71
2023/03/24 10:08:04;;;;;;;15.23;3.70;;;12.70;99.90;;;;;;5013847;28;20123;-71
2023/03/24 10:10:37;;;;;;;17.85;3.72;;;12.80;99.90;;;;;;5031778;28;20060;-71
2023/03/24 10:13:12;;;;;;;18.08;4.82;;;13.10;99.90;;;;;;5043345;28;20036;-70
2023/03/24 10:16:00;;;;;;;8.70;3.63;;;13.30;99.90;;;;;;5033488;28;20041;-71
2023/03/24 10:18:40;;;;;;;20.13;4.82;;;13.30;99.90;;;;;;5033574;28;20037;-70
2023/03/24 10:21:25;;;;;;;15.38;2.90;;;13.40;99.90;;;;;;5033623;28;20528;-71
2023/03/24 10:24:16;;;;;;;15.32;3.58;;;13.50;99.90;;;;;;5033478;28;20080;-71
2023/03/24 10:26:53;;;;;;;23.45;4.28;;;13.60;99.90;;;;;;5033875;28;20056;-71
2023/03/24 10:29:34;;;;;;;15.23;3.00;;;13.60;99.90;;;;;;5033582;28;20063;-71
2023/03/24 10:32:19;;;;;;;16.98;4.30;;;13.70;99.90;;;;;;5051604;28;20105;-71
2023/03/24 10:34:49;;;;;;;18.67;5.05;;;13.80;99.90;;;;;;5051205;28;20128;-71
2023/03/24 10:37:16;;;;;;;18.88;4.25;;;13.90;99.90;;;;;;5051363;28;20072;-71
2023/03/24 10:39:42;;;;;;;14.05;3.40;;;14.00;99.90;;;;;;5033311;28;20114;-71
2023/03/24 10:42:18;;;;;;;16.38;4.10;;;13.90;99.90;;;;;;5051428;28;20033;-71
2023/03/24 10:44:46;;;;;;;16.08;3.75;;;13.90;99.90;;;;;;5033206;28;20041;-71
2023/03/24 10:47:13;;;;;;;14.23;3.03;;;14.00;99.90;;;;;;5051348;28;20037;-71
2023/03/24 10:49:56;;;;;;;13.15;2.80;;;13.80;99.90;;;;;;5034849;28;20082;-71
2023/03/24 10:52:23;;;;;;;11.77;2.80;;;13.40;99.90;;;;;;5037504;28;20412;-71
2023/03/24 10:55:03;;;;;;;20.55;3.53;;;13.30;99.90;;;;;;5054728;28;20420;-71
2023/03/24 10:57:29;;;;;;;15.10;3.05;;;13.20;99.90;;;;;;5055016;28;20045;-71
2023/03/24 11:00:21;;;;;;;12.30;2.90;;;13.10;99.90;;;;;;5036958;28;20056;-71
2023/03/24 11:03:00;;;;;;;12.45;3.38;;;13.00;99.90;;;;;;5037911;28;20121;-71
2023/03/24 11:05:29;;;;;;;13.82;3.60;;;12.90;99.90;;;;;;5054795;28;20104;-71
2023/03/24 11:08:11;;;;;;;16.58;2.55;;;13.00;99.90;;;;;;5054790;28;20091;-70
2023/03/24 11:10:36;;;;;;;13.73;2.80;;;13.10;99.90;;;;;;5054880;28;20048;-71
2023/03/24 11:13:03;;;;;;;14.60;3.67;;;13.20;99.90;;;;;;5036984;28;20045;-71
2023/03/24 11:15:32;;;;;;;19.05;4.65;;;13.30;99.90;;;;;;5036644;28;20052;-71
2023/03/24 11:18:10;;;;;;;15.40;2.78;;;13.20;99.90;;;;;;5036355;28;20041;-72
2023/03/24 11:20:40;;;;;;;13.60;2.53;;;13.50;99.90;;;;;;5054755;28;20045;-72
2023/03/24 11:23:26;;;;;;;9.90;2.53;;;13.60;99.90;;;;;;5036542;28;20080;-73
2023/03/24 11:26:15;;;;;;;13.23;3.72;;;13.60;99.90;;;;;;5054560;28;20500;-72
2023/03/24 11:28:51;;;;;;;14.48;3.55;;;13.70;99.90;;;;;;5036476;28;20041;-72
2023/03/24 11:31:30;;;;;;;17.08;2.50;;;13.70;99.90;;;;;;5036350;28;20041;-72
2023/03/24 11:34:01;;;;;;;13.98;3.75;;;13.50;99.90;;;;;;5035978;28;20083;-72
2023/03/24 11:36:31;;;;;;;9.02;2.55;;;13.30;99.90;;;;;;5034892;28;20412;-72
2023/03/24 11:39:10;;;;;;;19.67;2.95;;;13.10;99.90;;;;;;5009359;28;20404;-72
2023/03/24 11:41:39;;;;;;;24.17;3.65;;;13.00;99.90;;;;;;5016227;28;20037;-72
2023/03/24 11:44:20;;;;;;;16.10;3.33;;;13.00;99.90;;;;;;5033833;28;20038;-72
2023/03/24 11:46:50;;;;;;;15.38;4.15;;;13.20;99.90;;;;;;5016630;28;20500;-72
2023/03/24 11:49:20;;;;;;;15.38;3.55;;;13.30;99.90;;;;;;5016175;28;20045;-72
2023/03/24 11:51:48;;;;;;;11.02;2.92;;;13.50;99.90;;;;;;5016047;28;20045;-72
2023/03/24 11:54:17;;;;;;;19.15;3.88;;;13.80;99.90;;;;;;5033660;28;20041;-72
2023/03/24 11:56:52;;;;;;;7.80;2.13;;;13.90;99.90;;;;;;5016415;28;20045;-73
2023/03/24 11:59:23;;;;;;;8.40;2.50;;;13.90;99.90;;;;;;5015802;28;20049;-72
2023/03/24 12:02:06;;;;;;;10.30;2.70;;;14.00;99.90;;;;;;5015741;28;20417;-73
2023/03/24 12:05:16;;;;;;;14.93;2.83;;;14.00;99.90;;;;;;5033521;28;20091;-73
2023/03/24 12:07:49;;;;;;;8.55;1.95;;;14.10;99.90;;;;;;5015829;28;20045;-72
2023/03/24 12:10:54;;;;;;;7.75;2.08;;;14.10;99.90;;;;;;5015899;28;20046;-72
2023/03/24 12:13:40;;;;;;;8.73;2.10;;;14.10;99.90;;;;;;5001753;28;20107;-72
2023/03/24 12:16:28;;;;;;;6.57;2.45;;;14.10;99.90;;;;;;5015575;28;20504;-72
2023/03/24 12:19:22;;;;;;;14.27;2.28;;;14.30;99.90;;;;;;5015112;28;20049;-72
2023/03/24 12:22:14;;;;;;;12.30;3.42;;;14.20;99.90;;;;;;5015552;28;20095;-73
2023/03/24 12:25:02;;;;;;;8.55;2.08;;;14.20;99.90;;;;;;5015108;28;20044;-74
2023/03/24 12:27:54;;;;;;;9.63;3.05;;;14.10;99.90;;;;;;5015291;28;20128;-71
2023/03/24 12:30:29;;;;;;;12.70;2.55;;;14.00;99.90;;;;;;5015286;28;20037;-72
2023/03/24 12:33:00;;;;;;;12.95;2.53;;;13.90;99.90;;;;;;5015331;28;20053;-71
2023/03/24 12:35:35;;;;;;;9.60;2.33;;;13.90;99.90;;;;;;5015318;28;20048;-71
2023/03/24 12:38:06;;;;;;;11.75;2.95;;;13.80;99.90;;;;;;5014570;28;20049;-71
2023/03/24 12:41:04;;;;;;;11.45;2.45;;;13.70;99.90;;;;;;5015422;28;20041;-71
2023/03/24 12:44:12;;;;;;;13.70;3.40;;;13.70;99.90;;;;;;4972037;28;20056;-71
2023/03/24 12:47:08;;;;;;;16.48;3.45;;;13.70;99.90;;;;;;5014944;28;20135;-72
2023/03/24 12:49:39;;;;;;;14.30;3.25;;;13.50;99.90;;;;;;5015287;28;20049;-71
2023/03/24 12:52:24;;;;;;;14.85;2.80;;;13.50;99.90;;;;;;5015235;28;20135;-72
2023/03/24 12:55:03;;;;;;;10.02;2.65;;;13.30;99.90;;;;;;5014621;28;20505;-71
2023/03/24 12:57:33;;;;;;;12.70;2.83;;;13.20;99.90;;;;;;5014924;28;20056;-71
2023/03/24 13:00:05;;;;;;;15.73;3.58;;;13.20;99.90;;;;;;5014787;28;20065;-71
2023/03/24 13:03:00;;;;;;;14.68;2.83;;;13.10;99.90;;;;;;5015407;28;20599;-71
2023/03/24 13:05:31;;;;;;;10.95;2.35;;;13.10;99.90;;;;;;5014516;28;20041;-68
2023/03/24 13:08:05;;;;;;;14.27;3.25;;;13.20;99.90;;;;;;5014478;28;20041;-69